Gilmore, Arkansas
Current Conditions -  °F | °C
As of 12:53 PM on Thursday 30 Oct 2014 (Local Time) from KAWM Reporting Station
Clear Clear  
Wind Chill: 66°   Ceiling: Unl
Heat Index: 66°   Visibility: 10mi
Dew Point: 39°   Wind: 6mph
Humidity: 37%   Direction: 180°S
Pressure: 30.12"   Gusts: NA
Location:  35.41°N, 90.28°W
Report Text: KAWM 301753Z AUTO 18005KT 10SM CLR 19/04 A3012 RMK AO2 SLP200 T01890039 10189 20050 58010
Loading
Personal Weather Stations






























Interactive Weather Map New forecast layout! Learn more

10-Day Weather Forecast

Advertisements
Track Severe Weather on mobile